Latest Coastal Weather Observations for Moruya Airport

IDN60701

Issued at 9:41 pm EST Tuesday 19 September 2017 (issued every 10 minutes, with the page automatically refreshed every 10 minutes)

About coastal observations | Map of coastal stations | Coastal observations for NSW | Marine services | Other Formats
Station Details ID: 069148 Name: MORUYA AIRPORT AWS Lat: -35.90 Lon: 150.14 Height: 4.0 m
Data from the previous 72 hours. | See also: Recent months at Moruya Airport
Date/Time
EST
Temp
°C
Wind Pressure Rain since
9am
mm
Weather Cloud Vis
km
Sea
Height
m
Swell
Dir  Spd
kts
Gust
kts
hPa Trend Height
m
Period
s
Dir
19/09:30pm 7.5 NW 3 5 1019.3 - 0.0 - Clear 10 - - - -
19/09:00pm 7.9 NW 3 5 1019.1 - 0.0 - - 10 - - - -
19/08:30pm 8.9 CALM 0 0 1018.9 - 0.0 - Partly cloudy 10 - - - -
19/08:00pm 9.1 S 4 5 1018.7 - 0.0 - - 10 - - - -
19/07:30pm 9.7 WNW 1 4 1018.7 - 0.0 - - 10 - - - -
19/07:00pm 10.7 CALM 0 0 1018.2 - 0.0 - Partly cloudy 10 - - - -
19/06:30pm 11.5 N 3 4 1017.6 - 0.0 - Partly cloudy 10 - - - -
19/06:00pm 14.7 E 5 7 1017.1 - 0.0 - - 10 - - - -
19/05:30pm 15.3 ESE 6 9 1016.6 - 0.0 - - 10 - - - -
19/05:00pm 15.7 ESE 6 8 1015.9 - 0.0 - - 10 - - - -
19/04:30pm 16.2 ESE 9 12 1015.3 - 0.0 - - 10 - - - -
19/04:00pm 16.3 ESE 9 11 1014.9 - 0.0 - Partly cloudy 10 - - - -
19/03:30pm 16.2 ESE 8 11 1014.4 - 0.0 - - 10 - - - -
19/03:00pm 16.9 ESE 10 13 1013.9 - 0.0 - - 10 - - - -
19/02:30pm 17.3 ESE 9 13 1013.8 - 0.0 - - 10 - - - -
19/02:00pm 17.2 SE 10 14 1013.6 - 0.0 - Partly cloudy 10 - - - -
19/01:30pm 17.7 ESE 11 15 1013.6 - 0.0 - Partly cloudy 10 - - - -
19/01:00pm 17.2 SE 13 18 1013.5 - 0.0 - Partly cloudy 10 - - - -
19/12:30pm 21.6 SW 13 26 1012.8 - 0.0 - - 10 - - - -
19/12:00pm 21.1 WSW 13 19 1013.0 - 0.0 - - 10 - - - -
19/11:30am 21.0 WSW 11 18 1013.0 - 0.0 - - 10 - - - -
19/11:00am 20.8 WSW 13 22 1013.0 - 0.0 - - 10 - - - -
19/10:30am 20.5 WSW 8 13 1012.9 - 0.0 - - 10 - - - -
19/10:00am 19.4 WSW 10 18 1013.1 - 0.0 - - 10 - - - -
19/09:30am 18.3 WNW 11 18 1013.2 - 0.0 - - 10 - - - -
19/09:00am 18.4 WSW 9 14 1013.3 - 0.2 - - 10 - - - -
19/08:30am 17.3 W 9 20 1013.0 - 0.2 - - 10 - - - -
19/08:00am 16.1 SE 4 7 1012.9 - 0.2 - - 10 - - - -
19/07:30am 12.3 CALM 0 3 1012.5 - 0.2 - - 10 - - - -
19/07:00am 8.5 NW 2 5 1011.6 - 0.2 - - 10 - - - -
19/06:30am 10.9 NW 2 6 1011.5 - 0.2 - Partly cloudy 10 - - - -
19/06:00am 8.8 SSW 6 9 1011.9 - 0.0 - Mostly cloudy 10 - - - -
19/05:30am 7.5 WSW 4 8 1011.0 - 0.0 - - 10 - - - -
19/05:00am 7.3 WNW 4 6 1010.0 - 0.0 - - 10 - - - -
19/04:30am 11.1 WSW 9 12 1009.6 - 0.0 - - 10 - - - -
19/04:25am 11.4 WSW 9 12 1009.6 - 0.0 - - 10 - - - -
19/04:00am 6.3 WNW 3 5 1008.7 - 0.0 - - 10 - - - -
19/03:30am 6.7 SW 1 5 1008.7 - 0.0 - - 10 - - - -
19/03:00am 7.5 NW 3 5 1008.7 - 0.0 - - 10 - - - -
19/02:30am 9.4 W 3 6 1009.0 - 0.0 - - 10 - - - -
19/02:00am 10.2 SW 8 9 1009.0 - 0.0 - - 10 - - - -
19/01:30am 10.0 W 4 6 1009.2 - 0.0 - - 10 - - - -
19/01:00am 8.8 WSW 4 6 1009.9 - 0.0 - - 10 - - - -
19/12:30am 8.3 CALM 0 4 1010.4 - 0.0 - - 10 - - - -
19/12:00am 9.9 SW 3 4 1011.1 - 0.0 - - 10 - - - -
 
Date/Time
EST
Temp
°C
Wind Pressure Rain since
9am
mm
Weather Cloud Vis
km
Sea
Height
m
Swell
Dir  Spd
kts
Gust
kts
hPa Trend Height
m
Period
s
Dir
18/11:30pm 9.3 CALM 0 3 1011.6 - 0.0 - - 10 - - - -
18/11:00pm 9.2 CALM 0 0 1012.4 - 0.0 - - 10 - - - -
18/10:30pm 9.6 N 4 5 1013.0 - 0.0 - - 10 - - - -
18/10:00pm 11.5 N 4 6 1013.3 - 0.0 - - 10 - - - -
18/09:30pm 12.4 N 4 6 1013.8 - 0.0 - - 10 - - - -
18/09:00pm 13.5 NNW 4 6 1013.8 - 0.0 - - 10 - - - -
18/08:30pm 15.7 NNW 4 5 1013.9 - 0.0 - - 10 - - - -
18/08:00pm 18.4 N 6 9 1014.1 - 0.0 - - 10 - - - -
18/07:30pm 21.1 NNW 8 13 1014.1 - 0.0 - - 10 - - - -
18/07:00pm 21.3 NW 8 13 1013.9 - 0.0 - - 10 - - - -
18/06:30pm 21.0 NNW 6 10 1013.7 - 0.0 - - 10 - - - -
18/06:00pm 21.9 NNW 8 17 1013.5 - 0.0 - - 10 - - - -
18/05:30pm 23.1 NW 10 19 1013.2 - 0.0 - - 10 - - - -
18/05:00pm 23.9 NNW 10 16 1013.0 - 0.0 - - 10 - - - -
18/04:30pm 24.8 NNW 11 21 1013.0 - 0.0 - - 10 - - - -
18/04:03pm 25.4 NNW 15 25 1013.1 - 0.0 - - 10 - - - -
18/04:00pm 25.4 NW 14 25 1013.0 - 0.0 - - 10 - - - -
18/03:30pm 25.9 NW 13 24 1012.9 - 0.0 - - 10 - - - -
18/03:00pm 26.3 NW 12 21 1013.3 - 0.0 - - 10 - - - -
18/02:30pm 26.5 NW 12 21 1013.7 - 0.0 - - 10 - - - -
18/02:00pm 27.0 NNW 12 19 1014.0 - 0.0 - - 10 - - - -
18/01:30pm 27.4 NNW 11 21 1014.3 - 0.0 - - 10 - - - -
18/01:00pm 23.6 NNE 15 19 1014.7 - 0.0 - - 10 - - - -
18/12:30pm 20.0 NE 13 16 1015.5 - 0.0 - - 10 - - - -
18/12:00pm 19.0 NE 15 21 1016.5 - 0.0 - - 10 - - - -
18/11:30am 19.2 NE 14 19 1017.0 - 0.0 - - 10 - - - -
18/11:00am 18.5 NE 11 15 1017.8 - 0.0 - - 10 - - - -
18/10:30am 17.7 ENE 11 13 1018.5 - 0.0 - - 10 - - - -
18/10:00am 20.1 N 9 11 1019.0 - 0.0 - - 10 - - - -
18/09:30am 18.3 N 8 12 1019.6 - 0.0 - - 10 - - - -
18/09:00am 16.3 NNE 6 8 1020.2 - 0.0 - - 10 - - - -
18/08:58am 16.3 N 5 8 1020.2 - 0.0 - - 10 - - - -
18/08:30am 11.2 NNW 5 7 1020.7 - 0.0 - - 10 - - - -
18/08:00am 7.8 N 4 5 1021.0 - 0.0 - - 10 - - - -
18/07:30am 5.3 NNW 4 5 1021.0 - 0.0 - - 10 - - - -
18/07:00am 1.7 NW 3 4 1021.2 - 0.0 - - 10 - - - -
18/06:30am -0.6 CALM 0 0 1021.4 - 0.0 - - 10 - - - -
18/06:00am -1.2 WNW 1 4 1021.3 - 0.0 - - 10 - - - -
18/05:30am -0.4 NNW 1 4 1021.5 - 0.0 - - 10 - - - -
18/05:24am -0.5 CALM 0 0 1021.5 - 0.0 - - 10 - - - -
18/05:14am -0.8 CALM 0 2 1021.4 - 0.0 - - 5 - - - -
18/05:00am -0.2 CALM 0 0 1021.5 - 0.0 - - 10 - - - -
18/04:30am 0.2 WSW 1 3 1021.4 - 0.0 - - 10 - - - -
18/04:00am 0.1 WNW 4 7 1021.6 - 0.0 - - 10 - - - -
18/03:30am -0.3 WNW 2 4 1021.8 - 0.0 - - 10 - - - -
18/03:00am -0.1 WNW 4 6 1022.1 - 0.0 - - 10 - - - -
18/02:30am 0.8 CALM 0 0 1022.3 - 0.0 - - 10 - - - -
18/02:00am 1.6 CALM 0 0 1022.7 - 0.0 - - 10 - - - -
18/01:30am 1.7 W 1 5 1023.3 - 0.0 - - 10 - - - -
18/01:00am 1.6 NW 1 3 1023.8 - 0.0 - - 10 - - - -
18/12:30am 2.4 NW 6 6 1024.3 - 0.0 - - 10 - - - -
18/12:00am 2.4 NW 5 6 1024.6 - 0.0 - - 10 - - - -
 
Date/Time
EST
Temp
°C
Wind Pressure Rain since
9am
mm
Weather Cloud Vis
km
Sea
Height
m
Swell
Dir  Spd
kts
Gust
kts
hPa Trend Height
m
Period
s
Dir
17/11:30pm 2.2 NW 4 5 1024.9 - 0.0 - - 10 - - - -
17/11:00pm 3.0 WNW 4 5 1025.1 - 0.0 - - 10 - - - -
17/10:30pm 3.9 WNW 5 6 1025.2 - 0.0 - - 10 - - - -
17/10:00pm 4.2 WNW 4 5 1025.4 - 0.0 - - 10 - - - -
17/09:30pm 5.0 WNW 5 6 1025.6 - 0.0 - - 10 - - - -
17/09:00pm 5.4 WNW 4 5 1025.6 - 0.0 - - 10 - - - -
17/08:30pm 5.3 NW 4 5 1025.7 - 0.0 - - 10 - - - -
17/08:00pm 5.7 NW 5 7 1025.5 - 0.0 - - 10 - - - -
17/07:30pm 5.8 NW 4 5 1025.5 - 0.0 - - 10 - - - -
17/07:00pm 7.8 NNW 4 5 1025.5 - 0.0 - - 10 - - - -
17/06:30pm 9.5 N 5 6 1025.2 - 0.0 - - 10 - - - -
17/06:00pm 11.5 N 6 8 1025.0 - 0.0 - - 10 - - - -
17/05:30pm 13.1 NE 6 8 1024.9 - 0.0 - - 10 - - - -
17/05:00pm 13.9 NNE 7 9 1024.7 - 0.0 - - 10 - - - -
17/04:30pm 14.4 NE 7 11 1024.7 - 0.0 - - 10 - - - -
17/04:00pm 14.7 ENE 8 11 1024.5 - 0.0 - - 10 - - - -
17/03:30pm 15.1 E 9 11 1024.4 - 0.0 - - 10 - - - -
17/03:00pm 15.0 ENE 9 12 1024.3 - 0.0 - - 10 - - - -
17/02:30pm 15.6 E 9 12 1024.3 - 0.0 - - 10 - - - -
17/02:00pm 15.5 E 9 12 1024.5 - 0.0 - - 10 - - - -
17/01:30pm 14.9 E 9 13 1024.8 - 0.0 - - 10 - - - -
17/01:00pm 15.9 E 10 11 1025.1 - 0.0 - - 10 - - - -
17/12:30pm 15.3 ESE 10 12 1025.5 - 0.0 - - 10 - - - -
17/12:00pm 15.3 ESE 9 11 1026.0 - 0.0 - - 10 - - - -
17/11:30am 14.9 ESE 9 11 1026.4 - 0.0 - - 10 - - - -
17/11:00am 15.4 SE 6 8 1026.8 - 0.0 - - 10 - - - -
17/10:30am 15.1 S 7 11 1027.1 - 0.0 - - 10 - - - -
17/10:00am 14.6 SSW 7 11 1027.4 - 0.0 - - 10 - - - -
17/09:30am 14.3 SW 10 14 1027.6 - 0.0 - - 10 - - - -
17/09:00am 13.5 W 8 14 1027.6 - 0.2 - - 10 - - - -
17/08:30am 12.1 W 6 10 1027.7 - 0.2 - - 10 - - - -
17/08:00am 10.3 W 7 11 1027.5 - 0.2 - - 10 - - - -
17/07:30am 9.3 W 6 11 1027.2 - 0.2 - Partly cloudy 10 - - - -
17/07:00am 7.4 W 6 9 1027.0 - 0.2 - - 10 - - - -
17/06:30am 5.2 W 5 8 1026.7 - 0.2 - Partly cloudy 10 - - - -
17/06:00am 4.3 W 5 8 1026.1 - 0.2 - - 10 - - - -
17/05:30am 3.0 W 6 9 1025.5 - 0.2 - - 10 - - - -
17/05:00am 1.3 W 5 8 1025.1 - 0.2 - - 10 - - - -
17/04:30am 0.7 W 5 7 1024.9 - 0.2 - - 10 - - - -
17/04:00am 0.6 WSW 4 6 1024.6 - 0.2 - - 10 - - - -
17/03:30am 1.1 CALM 0 0 1024.3 - 0.2 - - 10 - - - -
17/03:00am 1.3 W 4 7 1024.2 - 0.2 - - 10 - - - -
17/02:30am 0.4 WSW 5 7 1024.4 - 0.2 - - 10 - - - -
17/02:00am 1.2 WSW 3 4 1024.6 - 0.2 - - 10 - - - -
17/01:30am 1.2 SW 8 9 1024.8 - 0.2 - - 10 - - - -
17/01:00am 0.9 WSW 4 5 1024.6 - 0.2 - - 10 - - - -
17/12:30am 0.6 CALM 0 3 1024.7 - 0.2 - - 10 - - - -
17/12:00am 0.1 WSW 3 5 1024.5 - 0.2 - - 10 - - - -
 
Date/Time
EST
Temp
°C
Wind Pressure Rain since
9am
mm
Weather Cloud Vis
km
Sea
Height
m
Swell
Dir  Spd
kts
Gust
kts
hPa Trend Height
m
Period
s
Dir
16/11:30pm 1.1 WSW 2 4 1024.3 - 0.2 - - 10 - - - -
16/11:00pm 1.3 W 1 4 1024.4 - 0.2 - - 10 - - - -
16/10:30pm 1.3 WNW 3 4 1024.4 - 0.2 - - 10 - - - -
16/10:00pm 3.1 NW 3 5 1024.4 - 0.2 - - 10 - - - -

Other Formats:

Comma delimited format used in spreadsheet applications
http://www.bom.gov.au/fwo/IDN60701/IDN60701.95937.axf

JavaScript Object Notation format (JSON) in row-major order
http://www.bom.gov.au/fwo/IDN60701/IDN60701.95937.json